sensor_id;sensor_type;location;lat;lon;timestamp;P1;durP1;ratioP1;P2;durP2;ratioP2
69030;SDS011;56083;48.774;8.942;2022-09-09T00:01:06;4.90;;;1.60;;
69030;SDS011;56083;48.774;8.942;2022-09-09T00:12:02;11.40;;;1.60;;
69030;SDS011;56083;48.774;8.942;2022-09-09T00:17:12;8.65;;;1.48;;
69030;SDS011;56083;48.774;8.942;2022-09-09T00:19:48;7.38;;;1.40;;
69030;SDS011;56083;48.774;8.942;2022-09-09T00:22:25;7.53;;;1.30;;
69030;SDS011;56083;48.774;8.942;2022-09-09T00:24:56;7.00;;;1.35;;
69030;SDS011;56083;48.774;8.942;2022-09-09T00:27:42;5.00;;;1.35;;
69030;SDS011;56083;48.774;8.942;2022-09-09T00:32:49;13.98;;;1.65;;
69030;SDS011;56083;48.774;8.942;2022-09-09T00:35:32;6.88;;;1.30;;
69030;SDS011;56083;48.774;8.942;2022-09-09T00:38:03;6.72;;;1.02;;
69030;SDS011;56083;48.774;8.942;2022-09-09T00:43:29;8.73;;;1.27;;
69030;SDS011;56083;48.774;8.942;2022-09-09T00:46:21;8.43;;;1.20;;
69030;SDS011;56083;48.774;8.942;2022-09-09T00:49:04;6.82;;;1.40;;
69030;SDS011;56083;48.774;8.942;2022-09-09T00:52:37;5.45;;;1.10;;
69030;SDS011;56083;48.774;8.942;2022-09-09T00:57:29;4.93;;;1.10;;
69030;SDS011;56083;48.774;8.942;2022-09-09T01:05:22;8.85;;;1.00;;
69030;SDS011;56083;48.774;8.942;2022-09-09T01:07:55;4.68;;;1.15;;
69030;SDS011;56083;48.774;8.942;2022-09-09T01:12:58;5.68;;;1.13;;
69030;SDS011;56083;48.774;8.942;2022-09-09T01:15:29;7.03;;;1.40;;
69030;SDS011;56083;48.774;8.942;2022-09-09T01:20:29;6.60;;;1.30;;
69030;SDS011;56083;48.774;8.942;2022-09-09T01:23:25;7.10;;;1.30;;
69030;SDS011;56083;48.774;8.942;2022-09-09T01:28:53;8.07;;;1.40;;
69030;SDS011;56083;48.774;8.942;2022-09-09T01:31:23;6.57;;;1.20;;
69030;SDS011;56083;48.774;8.942;2022-09-09T01:33:54;7.35;;;1.20;;
69030;SDS011;56083;48.774;8.942;2022-09-09T01:36:29;4.05;;;1.17;;
69030;SDS011;56083;48.774;8.942;2022-09-09T01:39:02;4.78;;;1.05;;
69030;SDS011;56083;48.774;8.942;2022-09-09T01:41:28;5.32;;;1.20;;
69030;SDS011;56083;48.774;8.942;2022-09-09T01:43:54;7.70;;;1.40;;
69030;SDS011;56083;48.774;8.942;2022-09-09T01:46:21;5.60;;;1.08;;
69030;SDS011;56083;48.774;8.942;2022-09-09T01:48:48;7.97;;;1.25;;
69030;SDS011;56083;48.774;8.942;2022-09-09T01:51:18;7.88;;;1.17;;
69030;SDS011;56083;48.774;8.942;2022-09-09T01:53:43;8.55;;;0.95;;
69030;SDS011;56083;48.774;8.942;2022-09-09T01:58:56;3.55;;;0.60;;
69030;SDS011;56083;48.774;8.942;2022-09-09T02:01:55;7.10;;;0.95;;
69030;SDS011;56083;48.774;8.942;2022-09-09T02:07:01;2.30;;;0.68;;
69030;SDS011;56083;48.774;8.942;2022-09-09T02:09:27;1.77;;;0.50;;
69030;SDS011;56083;48.774;8.942;2022-09-09T02:11:57;2.67;;;0.70;;
69030;SDS011;56083;48.774;8.942;2022-09-09T02:14:34;6.60;;;0.73;;
69030;SDS011;56083;48.774;8.942;2022-09-09T02:17:08;4.78;;;0.80;;
69030;SDS011;56083;48.774;8.942;2022-09-09T02:19:41;3.47;;;0.80;;
69030;SDS011;56083;48.774;8.942;2022-09-09T02:22:10;5.72;;;0.90;;
69030;SDS011;56083;48.774;8.942;2022-09-09T02:24:37;2.90;;;0.65;;
69030;SDS011;56083;48.774;8.942;2022-09-09T02:27:06;6.65;;;0.80;;
69030;SDS011;56083;48.774;8.942;2022-09-09T02:29:38;6.07;;;1.10;;
69030;SDS011;56083;48.774;8.942;2022-09-09T02:32:11;3.40;;;0.70;;
69030;SDS011;56083;48.774;8.942;2022-09-09T02:34:45;7.78;;;0.90;;
69030;SDS011;56083;48.774;8.942;2022-09-09T02:37:33;2.83;;;0.82;;
69030;SDS011;56083;48.774;8.942;2022-09-09T02:40:03;4.88;;;0.90;;
69030;SDS011;56083;48.774;8.942;2022-09-09T02:42:30;5.43;;;1.10;;
69030;SDS011;56083;48.774;8.942;2022-09-09T02:44:56;5.13;;;0.85;;
69030;SDS011;56083;48.774;8.942;2022-09-09T02:55:40;8.57;;;1.10;;
69030;SDS011;56083;48.774;8.942;2022-09-09T02:58:12;5.30;;;1.08;;
69030;SDS011;56083;48.774;8.942;2022-09-09T03:00:46;3.35;;;0.60;;
69030;SDS011;56083;48.774;8.942;2022-09-09T03:03:13;7.03;;;1.20;;
69030;SDS011;56083;48.774;8.942;2022-09-09T03:05:41;2.70;;;0.93;;
69030;SDS011;56083;48.774;8.942;2022-09-09T03:08:07;4.07;;;0.70;;
69030;SDS011;56083;48.774;8.942;2022-09-09T03:10:33;5.18;;;1.20;;
69030;SDS011;56083;48.774;8.942;2022-09-09T03:12:59;4.75;;;0.80;;
69030;SDS011;56083;48.774;8.942;2022-09-09T03:15:25;4.70;;;0.75;;
69030;SDS011;56083;48.774;8.942;2022-09-09T03:17:56;8.55;;;0.95;;
69030;SDS011;56083;48.774;8.942;2022-09-09T03:20:26;5.18;;;0.82;;
69030;SDS011;56083;48.774;8.942;2022-09-09T03:22:53;2.40;;;0.85;;
69030;SDS011;56083;48.774;8.942;2022-09-09T03:25:19;3.47;;;0.63;;
69030;SDS011;56083;48.774;8.942;2022-09-09T03:27:45;4.45;;;0.60;;
69030;SDS011;56083;48.774;8.942;2022-09-09T03:30:11;3.40;;;0.80;;
69030;SDS011;56083;48.774;8.942;2022-09-09T03:32:37;1.90;;;0.70;;
69030;SDS011;56083;48.774;8.942;2022-09-09T03:35:03;4.85;;;0.90;;
69030;SDS011;56083;48.774;8.942;2022-09-09T03:37:29;4.68;;;0.60;;
69030;SDS011;56083;48.774;8.942;2022-09-09T03:39:54;6.18;;;0.80;;
69030;SDS011;56083;48.774;8.942;2022-09-09T03:42:20;4.60;;;0.70;;
69030;SDS011;56083;48.774;8.942;2022-09-09T03:44:47;4.18;;;0.90;;
69030;SDS011;56083;48.774;8.942;2022-09-09T03:47:15;6.05;;;0.90;;
69030;SDS011;56083;48.774;8.942;2022-09-09T03:49:42;4.03;;;1.30;;
69030;SDS011;56083;48.774;8.942;2022-09-09T03:52:08;6.70;;;0.90;;
69030;SDS011;56083;48.774;8.942;2022-09-09T03:54:34;4.30;;;0.90;;
69030;SDS011;56083;48.774;8.942;2022-09-09T03:57:00;2.90;;;0.68;;
69030;SDS011;56083;48.774;8.942;2022-09-09T03:59:26;7.10;;;0.75;;
69030;SDS011;56083;48.774;8.942;2022-09-09T04:01:52;4.43;;;0.93;;
69030;SDS011;56083;48.774;8.942;2022-09-09T04:04:19;7.75;;;0.75;;
69030;SDS011;56083;48.774;8.942;2022-09-09T04:06:45;3.67;;;0.80;;
69030;SDS011;56083;48.774;8.942;2022-09-09T04:09:13;3.72;;;0.85;;
69030;SDS011;56083;48.774;8.942;2022-09-09T04:11:39;3.60;;;0.75;;
69030;SDS011;56083;48.774;8.942;2022-09-09T04:14:05;4.25;;;0.70;;
69030;SDS011;56083;48.774;8.942;2022-09-09T04:16:31;3.95;;;0.90;;
69030;SDS011;56083;48.774;8.942;2022-09-09T04:18:58;4.90;;;0.77;;
69030;SDS011;56083;48.774;8.942;2022-09-09T04:21:24;4.00;;;0.90;;
69030;SDS011;56083;48.774;8.942;2022-09-09T04:23:50;4.07;;;0.82;;
69030;SDS011;56083;48.774;8.942;2022-09-09T04:26:16;4.03;;;0.90;;
69030;SDS011;56083;48.774;8.942;2022-09-09T04:28:42;5.50;;;1.00;;
69030;SDS011;56083;48.774;8.942;2022-09-09T04:31:14;4.55;;;0.70;;
69030;SDS011;56083;48.774;8.942;2022-09-09T04:33:45;4.55;;;0.90;;
69030;SDS011;56083;48.774;8.942;2022-09-09T04:36:11;3.22;;;0.88;;
69030;SDS011;56083;48.774;8.942;2022-09-09T04:38:38;3.05;;;1.13;;
69030;SDS011;56083;48.774;8.942;2022-09-09T04:41:04;7.85;;;0.90;;
69030;SDS011;56083;48.774;8.942;2022-09-09T04:43:30;6.70;;;1.10;;
69030;SDS011;56083;48.774;8.942;2022-09-09T04:45:56;4.60;;;0.90;;
69030;SDS011;56083;48.774;8.942;2022-09-09T04:48:24;3.90;;;0.82;;
69030;SDS011;56083;48.774;8.942;2022-09-09T04:51:06;5.97;;;0.88;;
69030;SDS011;56083;48.774;8.942;2022-09-09T04:53:38;6.55;;;1.08;;
69030;SDS011;56083;48.774;8.942;2022-09-09T04:56:09;2.90;;;0.90;;
69030;SDS011;56083;48.774;8.942;2022-09-09T04:58:36;5.93;;;1.45;;
69030;SDS011;56083;48.774;8.942;2022-09-09T05:01:03;4.32;;;0.95;;
69030;SDS011;56083;48.774;8.942;2022-09-09T05:03:30;6.60;;;0.98;;
69030;SDS011;56083;48.774;8.942;2022-09-09T05:06:01;3.40;;;0.90;;
69030;SDS011;56083;48.774;8.942;2022-09-09T05:08:29;6.63;;;1.13;;
69030;SDS011;56083;48.774;8.942;2022-09-09T05:10:54;7.05;;;0.90;;
69030;SDS011;56083;48.774;8.942;2022-09-09T05:13:20;4.95;;;0.93;;
69030;SDS011;56083;48.774;8.942;2022-09-09T05:15:54;11.07;;;1.23;;
69030;SDS011;56083;48.774;8.942;2022-09-09T05:18:19;3.05;;;0.95;;
69030;SDS011;56083;48.774;8.942;2022-09-09T05:20:46;5.63;;;0.82;;
69030;SDS011;56083;48.774;8.942;2022-09-09T05:23:12;6.05;;;1.20;;
69030;SDS011;56083;48.774;8.942;2022-09-09T05:25:38;7.63;;;1.23;;
69030;SDS011;56083;48.774;8.942;2022-09-09T05:28:05;4.90;;;0.70;;
69030;SDS011;56083;48.774;8.942;2022-09-09T05:30:32;4.90;;;0.80;;
69030;SDS011;56083;48.774;8.942;2022-09-09T05:32:59;5.72;;;0.98;;
69030;SDS011;56083;48.774;8.942;2022-09-09T05:35:24;3.85;;;1.20;;
69030;SDS011;56083;48.774;8.942;2022-09-09T05:37:50;3.53;;;1.00;;
69030;SDS011;56083;48.774;8.942;2022-09-09T05:40:16;6.22;;;1.02;;
69030;SDS011;56083;48.774;8.942;2022-09-09T05:42:41;5.50;;;1.35;;
69030;SDS011;56083;48.774;8.942;2022-09-09T05:45:07;3.40;;;0.80;;
69030;SDS011;56083;48.774;8.942;2022-09-09T05:47:34;3.72;;;0.73;;
69030;SDS011;56083;48.774;8.942;2022-09-09T05:50:00;6.00;;;0.90;;
69030;SDS011;56083;48.774;8.942;2022-09-09T05:52:26;3.15;;;0.80;;
69030;SDS011;56083;48.774;8.942;2022-09-09T05:54:52;4.50;;;0.90;;
69030;SDS011;56083;48.774;8.942;2022-09-09T05:57:20;3.55;;;1.20;;
69030;SDS011;56083;48.774;8.942;2022-09-09T05:59:45;6.50;;;1.00;;
69030;SDS011;56083;48.774;8.942;2022-09-09T06:02:11;8.38;;;1.10;;
69030;SDS011;56083;48.774;8.942;2022-09-09T06:04:38;2.63;;;0.80;;
69030;SDS011;56083;48.774;8.942;2022-09-09T06:07:04;8.20;;;0.90;;
69030;SDS011;56083;48.774;8.942;2022-09-09T06:09:30;6.20;;;1.10;;
69030;SDS011;56083;48.774;8.942;2022-09-09T06:11:56;4.53;;;1.00;;
69030;SDS011;56083;48.774;8.942;2022-09-09T06:14:23;4.32;;;0.98;;
69030;SDS011;56083;48.774;8.942;2022-09-09T06:16:50;4.57;;;1.00;;
69030;SDS011;56083;48.774;8.942;2022-09-09T06:19:16;5.65;;;1.00;;
69030;SDS011;56083;48.774;8.942;2022-09-09T06:21:42;6.28;;;1.20;;
69030;SDS011;56083;48.774;8.942;2022-09-09T06:24:09;3.63;;;0.90;;
69030;SDS011;56083;48.774;8.942;2022-09-09T06:26:36;6.40;;;0.90;;
69030;SDS011;56083;48.774;8.942;2022-09-09T06:29:06;6.00;;;0.98;;
69030;SDS011;56083;48.774;8.942;2022-09-09T06:31:33;10.32;;;0.82;;
69030;SDS011;56083;48.774;8.942;2022-09-09T06:34:03;6.05;;;1.13;;
69030;SDS011;56083;48.774;8.942;2022-09-09T06:36:30;7.85;;;1.00;;
69030;SDS011;56083;48.774;8.942;2022-09-09T06:38:58;6.35;;;1.00;;
69030;SDS011;56083;48.774;8.942;2022-09-09T06:41:26;5.75;;;0.90;;
69030;SDS011;56083;48.774;8.942;2022-09-09T06:43:53;3.60;;;0.77;;
69030;SDS011;56083;48.774;8.942;2022-09-09T06:46:21;6.43;;;1.10;;
69030;SDS011;56083;48.774;8.942;2022-09-09T06:48:48;6.47;;;1.02;;
69030;SDS011;56083;48.774;8.942;2022-09-09T06:51:18;6.13;;;0.80;;
69030;SDS011;56083;48.774;8.942;2022-09-09T06:53:46;6.82;;;0.93;;
69030;SDS011;56083;48.774;8.942;2022-09-09T06:56:29;3.75;;;1.00;;
69030;SDS011;56083;48.774;8.942;2022-09-09T06:58:59;4.45;;;0.90;;
69030;SDS011;56083;48.774;8.942;2022-09-09T07:01:28;8.32;;;0.93;;
69030;SDS011;56083;48.774;8.942;2022-09-09T07:03:56;4.43;;;0.80;;
69030;SDS011;56083;48.774;8.942;2022-09-09T07:06:25;2.47;;;1.00;;
69030;SDS011;56083;48.774;8.942;2022-09-09T07:08:53;8.15;;;0.90;;
69030;SDS011;56083;48.774;8.942;2022-09-09T07:11:20;5.65;;;1.17;;
69030;SDS011;56083;48.774;8.942;2022-09-09T07:13:48;6.13;;;1.17;;
69030;SDS011;56083;48.774;8.942;2022-09-09T07:16:17;4.28;;;1.00;;
69030;SDS011;56083;48.774;8.942;2022-09-09T07:18:44;3.95;;;0.98;;
69030;SDS011;56083;48.774;8.942;2022-09-09T07:21:10;4.53;;;0.90;;
69030;SDS011;56083;48.774;8.942;2022-09-09T07:23:37;6.10;;;0.95;;
69030;SDS011;56083;48.774;8.942;2022-09-09T07:26:07;4.60;;;1.00;;
69030;SDS011;56083;48.774;8.942;2022-09-09T07:28:47;4.05;;;0.85;;
69030;SDS011;56083;48.774;8.942;2022-09-09T07:31:14;6.82;;;0.95;;
69030;SDS011;56083;48.774;8.942;2022-09-09T07:33:42;5.38;;;0.93;;
69030;SDS011;56083;48.774;8.942;2022-09-09T07:36:19;7.03;;;1.02;;
69030;SDS011;56083;48.774;8.942;2022-09-09T07:38:51;4.93;;;1.30;;
69030;SDS011;56083;48.774;8.942;2022-09-09T07:41:26;4.78;;;0.98;;
69030;SDS011;56083;48.774;8.942;2022-09-09T07:43:53;3.83;;;0.80;;
69030;SDS011;56083;48.774;8.942;2022-09-09T07:46:19;4.20;;;1.20;;
69030;SDS011;56083;48.774;8.942;2022-09-09T07:48:47;9.32;;;1.05;;
69030;SDS011;56083;48.774;8.942;2022-09-09T07:51:18;2.75;;;1.00;;
69030;SDS011;56083;48.774;8.942;2022-09-09T07:53:47;4.63;;;1.10;;
69030;SDS011;56083;48.774;8.942;2022-09-09T07:56:14;3.05;;;0.95;;
69030;SDS011;56083;48.774;8.942;2022-09-09T07:58:46;8.07;;;1.30;;
69030;SDS011;56083;48.774;8.942;2022-09-09T08:01:16;6.20;;;1.20;;
69030;SDS011;56083;48.774;8.942;2022-09-09T08:03:45;6.13;;;1.10;;
69030;SDS011;56083;48.774;8.942;2022-09-09T08:06:12;5.45;;;1.08;;
69030;SDS011;56083;48.774;8.942;2022-09-09T08:08:39;3.40;;;1.00;;
69030;SDS011;56083;48.774;8.942;2022-09-09T08:11:13;5.65;;;1.10;;
69030;SDS011;56083;48.774;8.942;2022-09-09T08:13:40;5.85;;;0.98;;
69030;SDS011;56083;48.774;8.942;2022-09-09T08:16:14;3.47;;;0.80;;
69030;SDS011;56083;48.774;8.942;2022-09-09T08:18:48;5.80;;;1.10;;
69030;SDS011;56083;48.774;8.942;2022-09-09T08:21:16;6.03;;;0.90;;
69030;SDS011;56083;48.774;8.942;2022-09-09T08:23:44;3.67;;;1.02;;
69030;SDS011;56083;48.774;8.942;2022-09-09T08:26:13;6.38;;;1.27;;
69030;SDS011;56083;48.774;8.942;2022-09-09T08:28:41;5.57;;;1.13;;
69030;SDS011;56083;48.774;8.942;2022-09-09T08:33:43;6.78;;;1.05;;
69030;SDS011;56083;48.774;8.942;2022-09-09T08:36:12;3.97;;;1.00;;
69030;SDS011;56083;48.774;8.942;2022-09-09T08:38:40;5.03;;;0.98;;
69030;SDS011;56083;48.774;8.942;2022-09-09T08:41:10;7.10;;;1.42;;
69030;SDS011;56083;48.774;8.942;2022-09-09T08:43:50;5.07;;;1.10;;
69030;SDS011;56083;48.774;8.942;2022-09-09T08:46:30;4.10;;;1.15;;
69030;SDS011;56083;48.774;8.942;2022-09-09T08:48:58;4.28;;;1.08;;
69030;SDS011;56083;48.774;8.942;2022-09-09T08:51:32;5.28;;;0.98;;
69030;SDS011;56083;48.774;8.942;2022-09-09T08:53:59;6.63;;;1.20;;
69030;SDS011;56083;48.774;8.942;2022-09-09T08:56:27;7.93;;;1.40;;
69030;SDS011;56083;48.774;8.942;2022-09-09T08:58:57;8.30;;;1.55;;
69030;SDS011;56083;48.774;8.942;2022-09-09T09:01:40;4.55;;;1.20;;
69030;SDS011;56083;48.774;8.942;2022-09-09T09:04:41;7.47;;;1.40;;
69030;SDS011;56083;48.774;8.942;2022-09-09T09:07:32;4.40;;;1.10;;
69030;SDS011;56083;48.774;8.942;2022-09-09T09:10:31;5.50;;;1.27;;
69030;SDS011;56083;48.774;8.942;2022-09-09T09:13:12;5.70;;;1.10;;
69030;SDS011;56083;48.774;8.942;2022-09-09T09:15:40;4.93;;;1.00;;
69030;SDS011;56083;48.774;8.942;2022-09-09T09:18:10;8.02;;;1.45;;
69030;SDS011;56083;48.774;8.942;2022-09-09T09:20:50;6.00;;;1.42;;
69030;SDS011;56083;48.774;8.942;2022-09-09T09:23:25;9.15;;;1.38;;
69030;SDS011;56083;48.774;8.942;2022-09-09T09:25:55;7.47;;;1.20;;
69030;SDS011;56083;48.774;8.942;2022-09-09T09:28:25;9.98;;;1.30;;
69030;SDS011;56083;48.774;8.942;2022-09-09T09:30:54;6.47;;;1.23;;
69030;SDS011;56083;48.774;8.942;2022-09-09T09:33:35;3.15;;;1.00;;
69030;SDS011;56083;48.774;8.942;2022-09-09T09:36:11;3.95;;;1.00;;
69030;SDS011;56083;48.774;8.942;2022-09-09T09:38:40;3.22;;;0.90;;
69030;SDS011;56083;48.774;8.942;2022-09-09T09:41:39;7.45;;;1.00;;
69030;SDS011;56083;48.774;8.942;2022-09-09T09:44:30;4.30;;;0.98;;
69030;SDS011;56083;48.774;8.942;2022-09-09T09:47:19;4.60;;;1.08;;
69030;SDS011;56083;48.774;8.942;2022-09-09T09:49:52;5.85;;;1.30;;
69030;SDS011;56083;48.774;8.942;2022-09-09T09:52:21;4.90;;;1.15;;
69030;SDS011;56083;48.774;8.942;2022-09-09T09:54:48;5.38;;;1.23;;
69030;SDS011;56083;48.774;8.942;2022-09-09T09:57:15;3.65;;;0.98;;
69030;SDS011;56083;48.774;8.942;2022-09-09T09:59:42;4.28;;;1.10;;
69030;SDS011;56083;48.774;8.942;2022-09-09T10:02:22;6.20;;;1.25;;
69030;SDS011;56083;48.774;8.942;2022-09-09T10:05:08;5.07;;;1.00;;
69030;SDS011;56083;48.774;8.942;2022-09-09T10:07:43;7.55;;;1.00;;
69030;SDS011;56083;48.774;8.942;2022-09-09T10:10:12;4.82;;;0.95;;
69030;SDS011;56083;48.774;8.942;2022-09-09T10:12:49;7.33;;;1.00;;
69030;SDS011;56083;48.774;8.942;2022-09-09T10:18:34;7.03;;;1.45;;
69030;SDS011;56083;48.774;8.942;2022-09-09T10:26:49;6.22;;;1.13;;
69030;SDS011;56083;48.774;8.942;2022-09-09T10:32:06;14.18;;;1.58;;
69030;SDS011;56083;48.774;8.942;2022-09-09T10:34:56;7.63;;;1.30;;
69030;SDS011;56083;48.774;8.942;2022-09-09T10:40:14;6.00;;;1.20;;
69030;SDS011;56083;48.774;8.942;2022-09-09T10:43:04;6.55;;;1.10;;
69030;SDS011;56083;48.774;8.942;2022-09-09T10:48:23;6.93;;;1.33;;
69030;SDS011;56083;48.774;8.942;2022-09-09T10:51:17;9.63;;;1.60;;
69030;SDS011;56083;48.774;8.942;2022-09-09T10:54:06;5.47;;;1.20;;
69030;SDS011;56083;48.774;8.942;2022-09-09T10:56:51;7.68;;;1.02;;
69030;SDS011;56083;48.774;8.942;2022-09-09T10:59:23;6.97;;;0.95;;
69030;SDS011;56083;48.774;8.942;2022-09-09T11:01:56;6.72;;;1.10;;
69030;SDS011;56083;48.774;8.942;2022-09-09T11:04:31;4.80;;;0.73;;
69030;SDS011;56083;48.774;8.942;2022-09-09T11:07:01;7.10;;;0.82;;
69030;SDS011;56083;48.774;8.942;2022-09-09T11:09:35;6.35;;;0.77;;
69030;SDS011;56083;48.774;8.942;2022-09-09T11:12:04;3.88;;;0.70;;
69030;SDS011;56083;48.774;8.942;2022-09-09T11:14:44;4.90;;;0.90;;
69030;SDS011;56083;48.774;8.942;2022-09-09T11:17:15;6.93;;;0.85;;
69030;SDS011;56083;48.774;8.942;2022-09-09T11:19:44;2.50;;;0.50;;
69030;SDS011;56083;48.774;8.942;2022-09-09T11:22:24;4.80;;;0.60;;
69030;SDS011;56083;48.774;8.942;2022-09-09T11:25:20;4.03;;;0.75;;
69030;SDS011;56083;48.774;8.942;2022-09-09T11:30:20;3.30;;;0.73;;
69030;SDS011;56083;48.774;8.942;2022-09-09T11:33:15;2.92;;;0.70;;
69030;SDS011;56083;48.774;8.942;2022-09-09T11:36:06;3.97;;;0.80;;
69030;SDS011;56083;48.774;8.942;2022-09-09T11:38:56;2.65;;;0.68;;
69030;SDS011;56083;48.774;8.942;2022-09-09T11:41:34;4.53;;;0.70;;
69030;SDS011;56083;48.774;8.942;2022-09-09T11:44:09;8.50;;;0.75;;
69030;SDS011;56083;48.774;8.942;2022-09-09T11:46:37;4.05;;;1.25;;
69030;SDS011;56083;48.774;8.942;2022-09-09T11:49:04;4.40;;;1.20;;
69030;SDS011;56083;48.774;8.942;2022-09-09T11:51:32;8.05;;;0.90;;
69030;SDS011;56083;48.774;8.942;2022-09-09T11:57:00;1.85;;;0.57;;
69030;SDS011;56083;48.774;8.942;2022-09-09T11:59:30;6.03;;;0.80;;
69030;SDS011;56083;48.774;8.942;2022-09-09T12:01:57;4.68;;;0.60;;
69030;SDS011;56083;48.774;8.942;2022-09-09T12:07:03;2.50;;;0.70;;
69030;SDS011;56083;48.774;8.942;2022-09-09T12:09:47;1.85;;;0.50;;
69030;SDS011;56083;48.774;8.942;2022-09-09T12:12:22;3.67;;;0.63;;
69030;SDS011;56083;48.774;8.942;2022-09-09T12:17:28;2.42;;;0.80;;
69030;SDS011;56083;48.774;8.942;2022-09-09T12:22:44;1.83;;;0.50;;
69030;SDS011;56083;48.774;8.942;2022-09-09T12:28:24;2.03;;;0.70;;
69030;SDS011;56083;48.774;8.942;2022-09-09T12:31:08;2.47;;;0.60;;
69030;SDS011;56083;48.774;8.942;2022-09-09T12:33:42;3.17;;;0.73;;
69030;SDS011;56083;48.774;8.942;2022-09-09T12:36:17;2.30;;;0.45;;
69030;SDS011;56083;48.774;8.942;2022-09-09T12:38:46;1.38;;;0.52;;
69030;SDS011;56083;48.774;8.942;2022-09-09T12:41:25;2.53;;;0.57;;
69030;SDS011;56083;48.774;8.942;2022-09-09T12:44:03;3.20;;;0.75;;
69030;SDS011;56083;48.774;8.942;2022-09-09T12:46:52;2.72;;;0.75;;
69030;SDS011;56083;48.774;8.942;2022-09-09T12:49:29;3.33;;;0.55;;
69030;SDS011;56083;48.774;8.942;2022-09-09T12:52:04;3.83;;;0.70;;
69030;SDS011;56083;48.774;8.942;2022-09-09T12:54:35;5.53;;;0.60;;
69030;SDS011;56083;48.774;8.942;2022-09-09T12:57:01;3.92;;;0.80;;
69030;SDS011;56083;48.774;8.942;2022-09-09T12:59:35;3.75;;;0.80;;
69030;SDS011;56083;48.774;8.942;2022-09-09T13:02:11;2.17;;;0.60;;
69030;SDS011;56083;48.774;8.942;2022-09-09T13:04:43;3.55;;;0.80;;
69030;SDS011;56083;48.774;8.942;2022-09-09T13:07:11;3.83;;;0.70;;
69030;SDS011;56083;48.774;8.942;2022-09-09T13:09:38;3.10;;;0.68;;
69030;SDS011;56083;48.774;8.942;2022-09-09T13:12:04;2.10;;;0.75;;
69030;SDS011;56083;48.774;8.942;2022-09-09T13:14:38;2.60;;;0.77;;
69030;SDS011;56083;48.774;8.942;2022-09-09T13:17:05;3.33;;;0.90;;
69030;SDS011;56083;48.774;8.942;2022-09-09T13:19:36;3.13;;;0.73;;
69030;SDS011;56083;48.774;8.942;2022-09-09T13:22:13;1.58;;;0.65;;
69030;SDS011;56083;48.774;8.942;2022-09-09T13:24:45;3.95;;;0.77;;
69030;SDS011;56083;48.774;8.942;2022-09-09T13:27:23;2.25;;;0.63;;
69030;SDS011;56083;48.774;8.942;2022-09-09T13:29:56;2.78;;;0.70;;
69030;SDS011;56083;48.774;8.942;2022-09-09T13:32:23;3.90;;;0.60;;
69030;SDS011;56083;48.774;8.942;2022-09-09T13:34:55;2.83;;;0.70;;
69030;SDS011;56083;48.774;8.942;2022-09-09T13:37:27;4.82;;;0.77;;
69030;SDS011;56083;48.774;8.942;2022-09-09T13:39:59;4.78;;;0.70;;
69030;SDS011;56083;48.774;8.942;2022-09-09T13:42:27;2.95;;;0.70;;
69030;SDS011;56083;48.774;8.942;2022-09-09T13:44:55;1.80;;;0.57;;
69030;SDS011;56083;48.774;8.942;2022-09-09T13:47:26;2.58;;;0.65;;
69030;SDS011;56083;48.774;8.942;2022-09-09T13:50:09;5.65;;;0.77;;
69030;SDS011;56083;48.774;8.942;2022-09-09T13:52:53;4.68;;;1.00;;
69030;SDS011;56083;48.774;8.942;2022-09-09T13:58:03;1.85;;;0.57;;
69030;SDS011;56083;48.774;8.942;2022-09-09T14:00:30;1.58;;;0.50;;
69030;SDS011;56083;48.774;8.942;2022-09-09T14:02:58;2.40;;;0.70;;
69030;SDS011;56083;48.774;8.942;2022-09-09T14:05:27;3.80;;;0.73;;
69030;SDS011;56083;48.774;8.942;2022-09-09T14:07:55;2.30;;;0.70;;
69030;SDS011;56083;48.774;8.942;2022-09-09T14:10:20;3.28;;;0.60;;
69030;SDS011;56083;48.774;8.942;2022-09-09T14:12:47;3.30;;;0.63;;
69030;SDS011;56083;48.774;8.942;2022-09-09T14:15:12;2.15;;;0.63;;
69030;SDS011;56083;48.774;8.942;2022-09-09T14:17:39;2.10;;;0.70;;
69030;SDS011;56083;48.774;8.942;2022-09-09T14:20:05;3.60;;;0.80;;
69030;SDS011;56083;48.774;8.942;2022-09-09T14:22:36;2.65;;;0.60;;
69030;SDS011;56083;48.774;8.942;2022-09-09T14:25:04;5.47;;;0.50;;
69030;SDS011;56083;48.774;8.942;2022-09-09T14:27:31;2.67;;;0.70;;
69030;SDS011;56083;48.774;8.942;2022-09-09T14:29:57;1.92;;;0.60;;
69030;SDS011;56083;48.774;8.942;2022-09-09T14:32:24;2.38;;;0.55;;
69030;SDS011;56083;48.774;8.942;2022-09-09T14:34:51;2.47;;;0.70;;
69030;SDS011;56083;48.774;8.942;2022-09-09T14:37:17;7.50;;;1.95;;
69030;SDS011;56083;48.774;8.942;2022-09-09T14:39:43;1.88;;;0.60;;
69030;SDS011;56083;48.774;8.942;2022-09-09T14:42:09;2.97;;;0.60;;
69030;SDS011;56083;48.774;8.942;2022-09-09T14:44:36;2.38;;;0.60;;
69030;SDS011;56083;48.774;8.942;2022-09-09T14:47:03;2.42;;;0.70;;
69030;SDS011;56083;48.774;8.942;2022-09-09T14:49:29;5.90;;;0.70;;
69030;SDS011;56083;48.774;8.942;2022-09-09T14:51:56;2.15;;;0.80;;
69030;SDS011;56083;48.774;8.942;2022-09-09T14:54:21;5.78;;;0.50;;
69030;SDS011;56083;48.774;8.942;2022-09-09T14:56:48;1.48;;;0.50;;
69030;SDS011;56083;48.774;8.942;2022-09-09T14:59:14;3.55;;;0.68;;
69030;SDS011;56083;48.774;8.942;2022-09-09T15:01:40;3.20;;;0.50;;
69030;SDS011;56083;48.774;8.942;2022-09-09T15:04:06;4.85;;;0.70;;
69030;SDS011;56083;48.774;8.942;2022-09-09T15:06:33;2.67;;;0.70;;
69030;SDS011;56083;48.774;8.942;2022-09-09T15:09:02;3.47;;;0.60;;
69030;SDS011;56083;48.774;8.942;2022-09-09T15:11:29;4.10;;;0.60;;
69030;SDS011;56083;48.774;8.942;2022-09-09T15:13:55;2.15;;;0.57;;
69030;SDS011;56083;48.774;8.942;2022-09-09T15:16:22;2.15;;;0.60;;
69030;SDS011;56083;48.774;8.942;2022-09-09T15:18:53;3.20;;;0.80;;
69030;SDS011;56083;48.774;8.942;2022-09-09T15:21:21;5.57;;;0.80;;
69030;SDS011;56083;48.774;8.942;2022-09-09T15:23:49;2.45;;;0.60;;
69030;SDS011;56083;48.774;8.942;2022-09-09T15:26:16;3.08;;;0.77;;
69030;SDS011;56083;48.774;8.942;2022-09-09T15:28:43;5.13;;;0.80;;
69030;SDS011;56083;48.774;8.942;2022-09-09T15:31:11;4.28;;;0.80;;
69030;SDS011;56083;48.774;8.942;2022-09-09T15:33:51;2.63;;;0.70;;
69030;SDS011;56083;48.774;8.942;2022-09-09T15:36:31;5.07;;;1.00;;
69030;SDS011;56083;48.774;8.942;2022-09-09T15:38:58;3.55;;;0.88;;
69030;SDS011;56083;48.774;8.942;2022-09-09T15:41:25;5.40;;;1.10;;
69030;SDS011;56083;48.774;8.942;2022-09-09T15:43:52;2.28;;;0.82;;
69030;SDS011;56083;48.774;8.942;2022-09-09T15:48:53;5.90;;;0.65;;
69030;SDS011;56083;48.774;8.942;2022-09-09T15:51:28;6.07;;;0.70;;
69030;SDS011;56083;48.774;8.942;2022-09-09T15:53:55;7.05;;;1.00;;
69030;SDS011;56083;48.774;8.942;2022-09-09T15:56:23;4.53;;;1.02;;
69030;SDS011;56083;48.774;8.942;2022-09-09T15:58:49;6.93;;;1.00;;
69030;SDS011;56083;48.774;8.942;2022-09-09T16:01:15;6.72;;;1.08;;
69030;SDS011;56083;48.774;8.942;2022-09-09T16:03:44;4.80;;;0.70;;
69030;SDS011;56083;48.774;8.942;2022-09-09T16:06:19;4.20;;;0.85;;
69030;SDS011;56083;48.774;8.942;2022-09-09T16:08:47;3.22;;;0.77;;
69030;SDS011;56083;48.774;8.942;2022-09-09T16:11:22;2.88;;;0.80;;
69030;SDS011;56083;48.774;8.942;2022-09-09T16:13:50;4.53;;;0.75;;
69030;SDS011;56083;48.774;8.942;2022-09-09T16:16:18;3.85;;;0.43;;
69030;SDS011;56083;48.774;8.942;2022-09-09T16:18:47;1.70;;;0.30;;
69030;SDS011;56083;48.774;8.942;2022-09-09T16:21:17;1.67;;;0.47;;
69030;SDS011;56083;48.774;8.942;2022-09-09T16:23:57;0.52;;;0.22;;
69030;SDS011;56083;48.774;8.942;2022-09-09T16:26:24;2.03;;;0.40;;
69030;SDS011;56083;48.774;8.942;2022-09-09T16:28:51;1.40;;;0.32;;
69030;SDS011;56083;48.774;8.942;2022-09-09T16:31:20;2.45;;;0.70;;
69030;SDS011;56083;48.774;8.942;2022-09-09T16:33:47;0.63;;;0.30;;
69030;SDS011;56083;48.774;8.942;2022-09-09T16:36:15;0.95;;;0.30;;
69030;SDS011;56083;48.774;8.942;2022-09-09T16:38:42;1.77;;;0.60;;